首页
METAR-TAF:

METAR-TAF

机场 :

西安, 中华人民共和国

西安咸阳国际机场

纬度: 34-26N, 经度: 108-45E, 海拔: 479米

当前天气观测

该预报发布于16分钟前的03:00 UTC
风速2节,风向多变
温度 3°C
湿度 81%
气压 1024 hPa
能見度: 2000
轻雾

METAR: ZLXY 200300Z VRB01MPS 2000 BR NSC 03/M00 Q1024 BECMG TL0450 3000

时间: 11:16 (03:16 UTC)

预报

该预报发布于8小时和11分钟前的19:05 UTC
预报有效从20日的 00点(UTC)到 20日的 24点(UTC)
风速6节,风向西
能見度: 3000

TAF: ZLXY 191905Z 2000/2024 26003MPS 3000 HZ NSC TX09/2007Z TNM05/23Z

超过4000个机场的气象观测和天气预报(METAR&TAF报告)。

可查询的气象台以黄色和红色小点在地图上表示。

将鼠标移到小点上方,可查看气象台名称。

然后点击查看天气观测和预报。

如需切换地图:点击带黑十字的绿色按钮放大地图;点击带横线的绿色按钮缩小地图;或者点击绿色箭头查看邻近地区的地图。


METAR-TAF: